Time;durP1;ratioP1;P1;durP2;ratioP2;P2;SDS_P1;SDS_P2;PMS_P1;PMS_P2;Temp;Humidity;BMP_temperature;BMP_pressure;BME280_temperature;BME280_humidity;BME280_pressure;Samples;Min_cycle;Max_cycle;Signal;HPM_P1;HPM_P2
2023/03/23 00:00:54;;;;;;;27.27;18.70;;;;;;;7.28;66.51;94938.25;5023484;28;20025;-74
2023/03/23 00:03:21;;;;;;;27.25;17.67;;;;;;;7.24;66.61;94937.53;5007921;28;20326;-75
2023/03/23 00:05:50;;;;;;;23.48;16.17;;;;;;;7.25;66.88;94931.66;5024389;28;20056;-75
2023/03/23 00:08:20;;;;;;;24.95;16.83;;;;;;;7.25;66.61;94928.91;5025885;28;20056;-75
2023/03/23 00:10:52;;;;;;;23.60;16.20;;;;;;;7.24;66.09;94924.66;5024692;28;20029;-75
2023/03/23 00:13:19;;;;;;;24.13;15.93;;;;;;;7.25;65.81;94934.38;5025170;28;20038;-74
2023/03/23 00:15:48;;;;;;;21.50;14.98;;;;;;;7.28;65.54;94936.28;5023315;28;20025;-76
2023/03/23 00:18:21;;;;;;;25.67;15.68;;;;;;;7.27;65.48;94931.22;5023350;28;20025;-74
2023/03/23 00:20:51;;;;;;;21.45;14.80;;;;;;;7.24;65.46;94932.06;5008755;28;20034;-74
2023/03/23 00:23:18;;;;;;;23.85;16.30;;;;;;;7.18;65.23;94920.84;5022367;28;20076;-73
2023/03/23 00:25:48;;;;;;;23.85;15.63;;;;;;;7.24;64.85;94932.84;5024139;28;20032;-73
2023/03/23 00:28:15;;;;;;;22.65;15.48;;;;;;;7.18;65.23;94935.28;5022432;28;20021;-73
2023/03/23 00:30:41;;;;;;;23.60;15.10;;;;;;;7.23;65.07;94944.22;5023572;28;20029;-74
2023/03/23 00:33:07;;;;;;;24.00;15.27;;;;;;;7.23;64.95;94944.97;5022845;28;20049;-74
2023/03/23 00:35:34;;;;;;;20.02;15.07;;;;;;;7.21;65.11;94943.84;5024246;28;20101;-74
2023/03/23 00:37:59;;;;;;;19.75;15.25;;;;;;;7.19;64.94;94944.25;5023672;28;20056;-73
2023/03/23 00:40:26;;;;;;;22.83;15.52;;;;;;;7.17;65.00;94947.41;5022167;28;20097;-75
2023/03/23 00:42:51;;;;;;;25.10;16.92;;;;;;;7.15;65.28;94955.22;5025187;28;20021;-75
2023/03/23 00:45:17;;;;;;;25.40;17.02;;;;;;;7.13;65.46;94954.13;5023362;28;20060;-75
2023/03/23 00:47:46;;;;;;;25.55;17.35;;;;;;;7.12;64.83;94949.84;5025048;28;20025;-75
2023/03/23 00:50:13;;;;;;;22.17;16.00;;;;;;;7.08;64.92;94952.63;5021992;28;20455;-75
2023/03/23 00:52:39;;;;;;;22.33;15.13;;;;;;;7.07;64.61;94951.06;5023270;28;20029;-75
2023/03/23 00:55:06;;;;;;;22.48;15.07;;;;;;;7.02;64.54;94956.22;5023062;28;20056;-75
2023/03/23 00:57:31;;;;;;;24.23;16.35;;;;;;;7.00;64.59;94959.38;5022401;28;20044;-75
2023/03/23 00:59:57;;;;;;;25.35;16.25;;;;;;;6.97;64.80;94957.47;5023697;28;20037;-75
2023/03/23 01:02:24;;;;;;;23.85;16.48;;;;;;;6.98;64.93;94964.47;5021561;28;20040;-75
2023/03/23 01:04:51;;;;;;;24.42;16.13;;;;;;;6.94;64.68;94958.31;5024891;28;20037;-75
2023/03/23 01:07:20;;;;;;;21.75;15.68;;;;;;;6.95;65.00;94964.53;5021689;28;20143;-75
2023/03/23 01:09:46;;;;;;;24.42;17.25;;;;;;;6.97;65.33;94968.41;5023069;28;20401;-75
2023/03/23 01:12:12;;;;;;;32.35;19.20;;;;;;;6.96;65.55;94963.34;5022526;28;20444;-75
2023/03/23 01:14:37;;;;;;;32.35;20.67;;;;;;;6.96;66.33;94963.34;5023713;28;20097;-73
2023/03/23 01:17:03;;;;;;;37.28;22.48;;;;;;;6.98;66.66;94964.47;5023416;28;20374;-75
2023/03/23 01:19:28;;;;;;;34.83;21.92;;;;;;;6.93;66.88;94964.94;5021740;28;20037;-73
2023/03/23 01:21:54;;;;;;;33.58;20.95;;;;;;;6.94;66.75;94963.78;5023343;28;20026;-74
2023/03/23 01:24:19;;;;;;;31.33;20.50;;;;;;;6.98;66.81;94961.75;5005219;28;20025;-74
2023/03/23 01:26:45;;;;;;;36.33;22.27;;;;;;;6.91;67.78;94957.16;5023004;28;20025;-74
2023/03/23 01:29:11;;;;;;;43.22;23.33;;;;;;;6.78;69.18;94955.41;5023541;28;20036;-75
2023/03/23 01:31:36;;;;;;;45.35;25.63;;;;;;;6.62;69.88;94939.63;5024145;28;20021;-75
2023/03/23 01:34:03;;;;;;;36.92;24.77;;;;;;;6.65;70.40;94947.78;5022964;28;20028;-75
2023/03/23 01:36:32;;;;;;;41.33;25.73;;;;;;;6.69;70.56;94949.66;5005360;28;20021;-74
2023/03/23 01:39:00;;;;;;;42.08;26.73;;;;;;;6.70;70.44;94949.25;5023654;28;20058;-75
2023/03/23 01:41:26;;;;;;;40.13;24.67;;;;;;;6.76;69.52;94946.84;5021451;28;20040;-74
2023/03/23 01:44:03;;;;;;;33.70;22.85;;;;;;;6.73;69.56;94942.22;5022845;28;20037;-74
2023/03/23 01:46:31;;;;;;;37.50;24.33;;;;;;;6.57;70.31;94948.25;5023311;28;20025;-74
2023/03/23 01:49:06;;;;;;;39.20;25.13;;;;;;;6.51;70.40;94942.47;5022349;28;20473;-75
2023/03/23 01:51:32;;;;;;;37.38;22.95;;;;;;;6.38;70.85;94938.75;5006844;28;20032;-74
2023/03/23 01:54:00;;;;;;;37.17;23.90;;;;;;;6.30;70.89;94940.78;5021571;28;20018;-75
2023/03/23 01:56:29;;;;;;;38.58;24.05;;;;;;;6.33;71.01;94931.03;5022769;28;20054;-75
2023/03/23 01:58:55;;;;;;;38.55;24.10;;;;;;;6.27;71.78;94932.66;5021788;28;20036;-74
2023/03/23 02:01:21;;;;;;;37.30;24.70;;;;;;;6.26;72.09;94937.34;5022569;28;20029;-74
2023/03/23 02:03:48;;;;;;;39.80;24.17;;;;;;;6.27;71.91;94938.88;5021689;28;20136;-75
2023/03/23 02:06:14;;;;;;;39.67;24.10;;;;;;;6.39;71.60;94929.38;5022452;28;20029;-75
2023/03/23 02:08:40;;;;;;;39.97;23.50;;;;;;;6.47;71.41;94935.50;5022387;28;20026;-75
2023/03/23 02:11:20;;;;;;;38.45;22.95;;;;;;;6.51;71.47;94936.25;5021574;28;20043;-75
2023/03/23 02:13:47;;;;;;;33.40;22.02;;;;;;;6.58;70.84;94939.66;5023044;28;20029;-75
2023/03/23 02:16:43;;;;;;;31.23;21.05;;;;;;;6.73;69.53;94945.72;5021161;28;20033;-74
2023/03/23 02:19:27;;;;;;;31.85;20.63;;;;;;;6.79;68.94;94937.81;5023827;28;20029;-75
2023/03/23 02:22:31;;;;;;;31.45;21.50;;;;;;;6.83;68.64;94944.78;5026326;28;20038;-75
2023/03/23 02:25:14;;;;;;;32.20;21.35;;;;;;;6.92;68.38;94944.25;5023854;28;20054;-74
2023/03/23 02:28:07;;;;;;;33.17;20.23;;;;;;;6.89;68.19;94937.69;5024436;28;20046;-73
2023/03/23 02:31:04;;;;;;;33.63;22.50;;;;;;;6.95;68.04;94939.94;5024830;28;20037;-75
2023/03/23 02:33:36;;;;;;;31.90;20.63;;;;;;;6.97;67.46;94940.28;5040074;28;20033;-75
2023/03/23 02:36:18;;;;;;;36.88;22.23;;;;;;;6.93;67.44;94935.63;5041174;28;20030;-74
2023/03/23 02:39:00;;;;;;;34.13;22.42;;;;;;;6.94;67.25;94941.91;5024120;28;20124;-74
2023/03/23 02:41:32;;;;;;;33.40;22.15;;;;;;;6.92;67.29;94934.09;5023417;28;20043;-75
2023/03/23 02:43:58;;;;;;;32.00;21.33;;;;;;;6.87;67.35;94947.47;5025174;28;20075;-75
2023/03/23 02:46:23;;;;;;;33.90;21.13;;;;;;;6.90;67.55;94952.88;5023245;28;20091;-74
2023/03/23 02:48:51;;;;;;;33.47;23.25;;;;;;;6.93;67.26;94945.81;5040809;28;20049;-74
2023/03/23 02:51:18;;;;;;;33.45;21.88;;;;;;;6.98;67.25;94952.78;5023170;28;20032;-74
2023/03/23 02:53:44;;;;;;;34.42;22.33;;;;;;;6.96;67.09;94958.66;5040520;28;20627;-75
2023/03/23 02:56:10;;;;;;;33.63;21.67;;;;;;;6.98;66.69;94955.50;5023877;28;20049;-74
2023/03/23 02:58:36;;;;;;;31.55;21.77;;;;;;;6.90;66.48;94952.09;5023104;28;20057;-74
2023/03/23 03:01:32;;;;;;;36.63;23.05;;;;;;;6.92;66.76;94961.44;5035869;28;20108;-74
2023/03/23 03:04:00;;;;;;;34.80;21.15;;;;;;;6.88;66.82;94957.19;5023272;28;20124;-74
2023/03/23 03:06:48;;;;;;;33.58;20.05;;;;;;;6.85;67.36;94967.00;5025253;28;20502;-75
2023/03/23 03:09:18;;;;;;;30.40;20.48;;;;;;;6.85;66.72;94964.28;5026752;28;20098;-74
2023/03/23 03:11:48;;;;;;;33.65;21.00;;;;;;;6.82;66.76;94972.50;5025182;28;20036;-73
2023/03/23 03:14:20;;;;;;;35.20;21.00;;;;;;;6.81;66.51;94973.69;5025607;28;20064;-75
2023/03/23 03:16:54;;;;;;;36.00;22.58;;;;;;;6.80;66.46;94983.84;5023769;28;20547;-75
2023/03/23 03:19:29;;;;;;;31.45;21.27;;;;;;;6.79;66.38;94987.00;5025261;28;20060;-75
2023/03/23 03:21:57;;;;;;;34.08;21.63;;;;;;;6.80;66.47;94983.84;5007993;28;20162;-75
2023/03/23 03:24:24;;;;;;;31.67;21.73;;;;;;;6.79;66.11;94978.81;5024289;28;20094;-75
2023/03/23 03:26:52;;;;;;;31.48;19.88;;;;;;;6.76;66.19;94988.59;5025290;28;20117;-74
2023/03/23 03:29:21;;;;;;;28.50;18.63;;;;;;;6.70;66.51;94978.53;5023700;28;20061;-73
2023/03/23 03:31:47;;;;;;;29.35;18.65;;;;;;;6.72;66.69;94976.19;5008280;28;20159;-73
2023/03/23 03:34:17;;;;;;;29.15;18.92;;;;;;;6.70;66.39;94981.25;5007393;28;20041;-74
2023/03/23 03:36:45;;;;;;;30.25;20.42;;;;;;;6.65;66.29;94983.28;5008252;28;20064;-74
2023/03/23 03:39:12;;;;;;;30.45;19.27;;;;;;;6.62;66.27;94986.06;5024279;28;20034;-75
2023/03/23 03:41:38;;;;;;;27.30;18.83;;;;;;;6.52;66.30;94985.00;5023562;28;20178;-74
2023/03/23 03:44:05;;;;;;;29.50;17.88;;;;;;;6.52;66.58;94995.91;5024296;28;20029;-74
2023/03/23 03:46:31;;;;;;;27.00;18.15;;;;;;;6.49;67.02;94990.53;5024689;28;20082;-74
2023/03/23 03:48:58;;;;;;;28.15;18.48;;;;;;;6.48;66.98;94992.47;5024592;28;20151;-74
2023/03/23 03:51:24;;;;;;;23.08;16.95;;;;;;;6.46;67.19;94978.44;5024563;28;20033;-74
2023/03/23 03:53:50;;;;;;;25.75;17.38;;;;;;;6.46;67.02;94985.88;5024149;28;20141;-74
2023/03/23 03:56:15;;;;;;;24.55;17.88;;;;;;;6.42;67.03;94985.88;5023366;28;20514;-74
2023/03/23 03:58:42;;;;;;;28.80;18.00;;;;;;;6.44;66.78;94989.00;5007647;28;20060;-75
2023/03/23 04:01:09;;;;;;;24.42;18.25;;;;;;;6.45;66.34;94984.31;5024095;28;20105;-75
2023/03/23 04:03:35;;;;;;;25.88;17.63;;;;;;;6.35;66.50;94975.84;5007017;28;20510;-75
2023/03/23 04:06:01;;;;;;;24.55;17.42;;;;;;;6.37;66.14;94972.72;5024364;28;20029;-76
2023/03/23 04:08:26;;;;;;;24.52;17.45;;;;;;;6.35;66.11;94975.84;5022906;28;20089;-74
2023/03/23 04:10:53;;;;;;;27.15;18.67;;;;;;;6.35;66.20;94977.78;5024027;28;20026;-76
2023/03/23 04:13:19;;;;;;;27.30;17.50;;;;;;;6.33;66.13;94977.44;5024455;28;20033;-75
2023/03/23 04:15:45;;;;;;;29.25;18.33;;;;;;;6.30;66.30;94976.28;5007309;28;20055;-73
2023/03/23 04:18:11;;;;;;;29.25;19.23;;;;;;;6.27;66.25;94984.53;5006869;28;20037;-75
2023/03/23 04:20:37;;;;;;;28.80;19.15;;;;;;;6.28;66.24;94995.03;5024477;28;20040;-74
2023/03/23 04:23:03;;;;;;;32.10;18.98;;;;;;;6.27;66.34;94998.94;5025357;28;20057;-74
2023/03/23 04:25:32;;;;;;;28.40;18.30;;;;;;;6.21;66.44;94976.00;5022574;28;20033;-74
2023/03/23 04:28:00;;;;;;;30.40;20.67;;;;;;;6.26;66.61;94980.25;5023992;28;20344;-74
2023/03/23 04:30:27;;;;;;;32.35;20.13;;;;;;;6.25;66.49;94984.94;5022901;28;20431;-73
2023/03/23 04:32:54;;;;;;;29.63;19.15;;;;;;;6.22;66.53;94993.16;5024894;28;20555;-75
2023/03/23 04:35:24;;;;;;;25.85;17.95;;;;;;;6.23;66.16;94990.03;5024276;28;20056;-73
2023/03/23 04:37:50;;;;;;;27.55;17.77;;;;;;;6.21;66.06;94989.66;5006410;28;20051;-74
2023/03/23 04:40:16;;;;;;;24.42;16.85;;;;;;;6.17;66.38;94997.09;5025024;28;20108;-74
2023/03/23 04:42:46;;;;;;;26.17;18.27;;;;;;;6.15;66.28;94988.56;5022231;28;20022;-74
2023/03/23 04:45:21;;;;;;;27.23;18.50;;;;;;;6.12;66.22;94992.09;5025258;28;20034;-73
2023/03/23 04:47:52;;;;;;;31.63;20.50;;;;;;;6.10;66.37;94995.22;5006105;28;20030;-73
2023/03/23 04:50:23;;;;;;;31.88;20.58;;;;;;;6.03;66.48;94989.84;5022911;28;20040;-74
2023/03/23 04:52:51;;;;;;;33.97;22.00;;;;;;;6.04;66.48;94991.41;5023242;28;20083;-74
2023/03/23 04:55:17;;;;;;;32.20;21.75;;;;;;;6.06;66.35;94997.22;5023365;28;20045;-74
2023/03/23 04:57:43;;;;;;;40.35;23.00;;;;;;;6.06;66.34;94997.22;5023744;28;20034;-75
2023/03/23 05:00:16;;;;;;;30.77;20.73;;;;;;;6.05;66.41;95003.88;5021917;28;20033;-74
2023/03/23 05:02:42;;;;;;;32.58;22.23;;;;;;;5.96;66.55;95000.81;5007658;28;20109;-75
2023/03/23 05:05:09;;;;;;;35.10;23.40;;;;;;;6.07;66.61;95015.13;5022126;28;20095;-73
2023/03/23 05:07:36;;;;;;;35.75;23.75;;;;;;;6.12;66.37;95020.16;5023233;28;20105;-76
2023/03/23 05:10:02;;;;;;;34.83;22.85;;;;;;;6.13;66.25;95012.75;5022562;28;20068;-74
2023/03/23 05:12:27;;;;;;;35.28;24.30;;;;;;;6.09;66.15;95015.53;5006162;28;20022;-74
2023/03/23 05:14:52;;;;;;;38.25;24.80;;;;;;;6.11;66.15;95018.63;5007308;28;20109;-75
2023/03/23 05:17:18;;;;;;;41.97;24.55;;;;;;;6.12;66.08;95019.38;5023369;28;20538;-75
2023/03/23 05:19:47;;;;;;;40.35;25.33;;;;;;;6.13;65.98;95016.25;5025076;28;20040;-76
2023/03/23 05:22:14;;;;;;;37.60;25.67;;;;;;;6.10;66.15;95022.53;5021556;28;20071;-75
2023/03/23 05:24:39;;;;;;;44.72;29.17;;;;;;;6.10;65.96;95019.03;5023348;28;20025;-76
2023/03/23 05:27:07;;;;;;;45.15;30.60;;;;;;;6.11;66.38;95029.53;5023666;28;20035;-75
2023/03/23 05:29:35;;;;;;;41.90;28.30;;;;;;;6.15;66.62;95031.47;5024091;28;20372;-75
2023/03/23 05:32:02;;;;;;;37.55;24.90;;;;;;;6.21;66.59;95033.34;5023205;28;20037;-75
2023/03/23 05:34:28;;;;;;;40.00;25.40;;;;;;;6.17;66.56;95029.09;5005201;28;20353;-75
2023/03/23 05:36:55;;;;;;;36.70;24.85;;;;;;;6.24;66.46;95034.47;5006901;28;20045;-74
2023/03/23 05:39:21;;;;;;;40.17;27.17;;;;;;;6.24;66.30;95031.75;5021479;28;20030;-75
2023/03/23 05:41:46;;;;;;;40.28;27.42;;;;;;;6.28;66.38;95038.72;5023133;28;20036;-74
2023/03/23 05:44:13;;;;;;;37.58;24.08;;;;;;;6.32;66.17;95038.69;5023147;28;20079;-75
2023/03/23 05:46:39;;;;;;;33.90;23.75;;;;;;;6.33;66.05;95035.53;5005938;28;20403;-74
2023/03/23 05:49:04;;;;;;;34.28;23.27;;;;;;;6.40;65.99;95045.63;5023971;28;20033;-75
2023/03/23 05:51:29;;;;;;;34.15;22.55;;;;;;;6.34;66.09;95047.25;5023098;28;20670;-74
2023/03/23 05:53:55;;;;;;;34.95;22.60;;;;;;;6.42;66.23;95059.63;5024520;28;20083;-74
2023/03/23 05:56:21;;;;;;;34.50;21.52;;;;;;;6.45;66.27;95050.63;5024463;28;20490;-75
2023/03/23 05:58:46;;;;;;;37.90;22.25;;;;;;;6.49;65.99;95056.84;5028420;28;20017;-74
2023/03/23 06:01:15;;;;;;;34.28;21.80;;;;;;;6.52;66.19;95050.53;5025188;28;20041;-75
2023/03/23 06:03:41;;;;;;;27.80;19.38;;;;;;;6.58;66.07;95056.34;5027664;28;20095;-75
2023/03/23 06:06:09;;;;;;;30.88;20.65;;;;;;;6.60;66.04;95065.69;5025678;28;20092;-75
2023/03/23 06:08:36;;;;;;;35.03;21.20;;;;;;;6.62;66.45;95052.38;5009456;28;20553;-75
2023/03/23 06:11:02;;;;;;;32.58;20.58;;;;;;;6.64;66.31;95060.94;5027928;28;20030;-75
2023/03/23 06:13:28;;;;;;;31.67;20.60;;;;;;;6.72;66.53;95053.44;5008398;28;20026;-74
2023/03/23 06:15:57;;;;;;;31.40;21.35;;;;;;;6.81;66.32;95055.66;5027861;28;20026;-74
2023/03/23 06:18:23;;;;;;;34.97;22.83;;;;;;;6.87;66.13;95048.56;5024677;28;20140;-75
2023/03/23 06:20:50;;;;;;;35.20;21.83;;;;;;;6.91;66.18;95054.75;5027769;28;20074;-75
2023/03/23 06:23:16;;;;;;;35.15;21.52;;;;;;;6.97;66.17;95057.81;5025354;28;20025;-75
2023/03/23 06:25:41;;;;;;;33.13;22.00;;;;;;;6.99;66.44;95060.91;5027642;28;20026;-74
2023/03/23 06:28:06;;;;;;;32.70;21.77;;;;;;;7.05;66.54;95051.06;5026245;28;20013;-75
2023/03/23 06:30:32;;;;;;;34.38;21.75;;;;;;;7.05;66.64;95057.31;5024876;28;20476;-74
2023/03/23 06:32:57;;;;;;;36.58;21.15;;;;;;;7.17;66.78;95045.84;5027887;28;20108;-74
2023/03/23 06:35:23;;;;;;;36.70;22.85;;;;;;;7.29;66.46;95049.97;5025844;28;20021;-73
2023/03/23 06:37:49;;;;;;;33.38;22.48;;;;;;;7.34;66.62;95051.44;5027623;28;20121;-75
2023/03/23 06:40:18;;;;;;;36.70;23.38;;;;;;;7.43;66.53;95057.19;5024878;28;20037;-74
2023/03/23 06:42:43;;;;;;;36.60;23.52;;;;;;;7.47;66.51;95059.88;5027223;28;20040;-75
2023/03/23 06:45:09;;;;;;;32.80;21.65;;;;;;;7.63;65.99;95055.31;5025271;28;20021;-74
2023/03/23 06:47:35;;;;;;;34.33;22.40;;;;;;;7.67;66.10;95061.50;5008441;28;20022;-75
2023/03/23 06:50:00;;;;;;;36.28;22.83;;;;;;;7.79;65.91;95059.34;5027375;28;20026;-72
2023/03/23 06:52:26;;;;;;;35.03;23.38;;;;;;;7.91;65.96;95073.25;5025619;28;20025;-72
2023/03/23 06:54:52;;;;;;;33.45;22.25;;;;;;;8.05;65.50;95071.47;5025748;28;20373;-73
2023/03/23 06:57:18;;;;;;;36.75;23.33;;;;;;;8.12;65.39;95069.38;5007705;28;20025;-74
2023/03/23 06:59:44;;;;;;;37.10;23.92;;;;;;;8.21;65.69;95075.09;5009270;28;20017;-74
2023/03/23 07:02:16;;;;;;;41.10;25.80;;;;;;;8.39;64.95;95076.75;5024588;28;20484;-74
2023/03/23 07:04:42;;;;;;;43.28;27.27;;;;;;;8.54;64.69;95077.25;5008510;28;20635;-73
2023/03/23 07:07:09;;;;;;;34.92;24.20;;;;;;;8.62;64.40;95076.72;5025005;28;20044;-74
2023/03/23 07:09:34;;;;;;;36.03;24.02;;;;;;;8.74;63.96;95067.09;5025513;28;20025;-73
2023/03/23 07:12:00;;;;;;;36.50;24.13;;;;;;;8.89;63.53;95073.06;5027360;28;20054;-73
2023/03/23 07:14:26;;;;;;;41.40;24.65;;;;;;;8.96;63.92;95075.69;5023825;28;20025;-72
2023/03/23 07:16:53;;;;;;;36.78;24.35;;;;;;;9.03;63.88;95081.00;5026881;28;20036;-72
2023/03/23 07:19:18;;;;;;;34.78;22.38;;;;;;;9.18;63.28;95074.03;5024316;28;20029;-74
2023/03/23 07:21:44;;;;;;;38.72;23.98;;;;;;;9.31;63.07;95080.41;5026264;28;20025;-73
2023/03/23 07:24:13;;;;;;;37.08;23.95;;;;;;;9.42;62.86;95076.66;5024535;28;20111;-73
2023/03/23 07:26:40;;;;;;;32.20;23.05;;;;;;;9.52;62.54;95078.41;5023936;28;20041;-73
2023/03/23 07:29:06;;;;;;;34.97;23.15;;;;;;;9.68;62.19;95086.63;5025446;28;20030;-73
2023/03/23 07:31:32;;;;;;;33.30;22.17;;;;;;;9.79;62.31;95084.41;5023401;28;20067;-74
2023/03/23 07:33:57;;;;;;;31.95;22.48;;;;;;;9.92;61.86;95073.56;5025285;28;20075;-74
2023/03/23 07:36:23;;;;;;;36.45;22.83;;;;;;;10.03;61.41;95084.25;5025046;28;20040;-73
2023/03/23 07:38:48;;;;;;;33.40;23.33;;;;;;;10.08;61.47;95083.75;5025930;28;20025;-73
2023/03/23 07:41:14;;;;;;;36.03;23.20;;;;;;;10.25;61.24;95087.28;5024141;28;20480;-72
2023/03/23 07:43:41;;;;;;;37.63;23.25;;;;;;;10.43;60.85;95090.34;5024006;28;20033;-74
2023/03/23 07:46:06;;;;;;;35.55;23.35;;;;;;;10.59;60.75;95090.31;5026102;28;20481;-74
2023/03/23 07:48:32;;;;;;;34.17;24.58;;;;;;;10.82;60.23;95091.28;5023303;28;20026;-76
2023/03/23 07:50:58;;;;;;;34.47;23.52;;;;;;;10.85;59.54;95090.44;5025998;28;20997;-73
2023/03/23 07:53:24;;;;;;;35.85;22.90;;;;;;;10.92;58.99;95078.47;5023177;28;20025;-74
2023/03/23 07:55:50;;;;;;;28.30;19.98;;;;;;;11.19;58.36;95095.38;5025708;28;20045;-73
2023/03/23 07:58:18;;;;;;;27.85;21.23;;;;;;;11.32;57.75;95085.16;5024699;28;20078;-74
2023/03/23 08:00:45;;;;;;;30.17;22.95;;;;;;;11.44;57.69;95087.16;5023953;28;20112;-73
2023/03/23 08:03:11;;;;;;;30.90;23.38;;;;;;;11.66;57.07;95086.50;5023848;28;20408;-72
2023/03/23 08:05:36;;;;;;;31.23;22.73;;;;;;;11.76;57.17;95085.44;5023061;28;20024;-72
2023/03/23 08:08:02;;;;;;;31.00;22.35;;;;;;;11.98;56.77;95088.28;5024668;28;20357;-73
2023/03/23 08:10:27;;;;;;;32.20;22.02;;;;;;;12.11;56.03;95091.03;5023133;28;20570;-73
2023/03/23 08:12:55;;;;;;;29.98;21.55;;;;;;;12.29;55.38;95085.72;5025778;28;20103;-74
2023/03/23 08:15:21;;;;;;;34.28;21.27;;;;;;;12.45;54.92;95090.31;5024374;28;20087;-76
2023/03/23 08:17:47;;;;;;;30.50;20.45;;;;;;;12.68;54.52;95091.91;5022905;28;20059;-73
2023/03/23 08:20:13;;;;;;;29.30;21.90;;;;;;;12.87;53.85;95090.84;5023350;28;20057;-72
2023/03/23 08:22:44;;;;;;;31.92;21.35;;;;;;;13.11;53.24;95091.16;5023461;28;20067;-73
2023/03/23 08:25:11;;;;;;;27.15;20.63;;;;;;;13.29;52.42;95085.00;5024181;28;20028;-73
2023/03/23 08:27:37;;;;;;;29.80;19.70;;;;;;;13.64;51.58;95088.44;5006059;28;20040;-74
2023/03/23 08:30:05;;;;;;;24.92;18.48;;;;;;;13.84;51.26;95085.31;5024136;28;20033;-75
2023/03/23 08:32:30;;;;;;;24.92;18.73;;;;;;;14.03;50.29;95083.38;5021451;28;20377;-73
2023/03/23 08:34:57;;;;;;;24.33;17.67;;;;;;;14.34;49.91;95092.38;5022794;28;20036;-72
2023/03/23 08:37:22;;;;;;;23.02;16.85;;;;;;;14.60;48.71;95092.13;5007511;28;20164;-73
2023/03/23 08:39:51;;;;;;;23.67;16.05;;;;;;;14.90;47.96;95081.38;5012603;28;20033;-72
2023/03/23 08:42:18;;;;;;;23.00;17.13;;;;;;;15.18;47.56;95084.91;5020160;28;20040;-73
2023/03/23 08:44:44;;;;;;;27.30;16.83;;;;;;;15.48;45.48;95086.69;5021950;28;20040;-73
2023/03/23 08:47:09;;;;;;;23.08;15.40;;;;;;;15.87;44.88;95086.94;5023833;28;20029;-74
2023/03/23 08:49:35;;;;;;;18.70;13.02;;;;;;;16.20;43.84;95076.59;5016119;28;20428;-73
2023/03/23 08:52:01;;;;;;;15.75;11.52;;;;;;;16.55;41.55;95078.09;5020966;28;20108;-75
2023/03/23 08:54:26;;;;;;;15.43;11.23;;;;;;;16.87;40.79;95087.63;5055686;28;20017;-73
2023/03/23 08:56:52;;;;;;;15.75;10.73;;;;;;;17.26;39.84;95080.03;5024105;28;20045;-74
2023/03/23 08:59:20;;;;;;;9.13;7.93;;;;;;;17.68;38.60;95082.56;5024560;28;20412;-74
2023/03/23 09:01:47;;;;;;;9.10;7.15;;;;;;;18.05;36.71;95080.13;5022504;28;20395;-74
2023/03/23 09:04:14;;;;;;;9.15;7.30;;;;;;;18.49;35.52;95076.47;5023253;28;20408;-73
2023/03/23 09:06:39;;;;;;;9.18;6.70;;;;;;;18.82;35.55;95078.97;5021944;28;20123;-73
2023/03/23 09:09:08;;;;;;;10.15;7.22;;;;;;;19.24;32.66;95082.47;5024752;28;20488;-73
2023/03/23 09:11:35;;;;;;;9.15;6.78;;;;;;;19.49;30.91;95080.94;5022054;28;20424;-73
2023/03/23 09:14:01;;;;;;;10.05;7.45;;;;;;;19.29;30.94;95079.00;5039372;28;20107;-73
2023/03/23 09:16:28;;;;;;;8.55;7.65;;;;;;;19.45;30.93;95083.22;5038787;28;20026;-73
2023/03/23 09:18:53;;;;;;;12.00;8.07;;;;;;;19.81;32.03;95081.78;5038804;28;20040;-73
2023/03/23 09:21:20;;;;;;;11.70;8.77;;;;;;;20.22;31.72;95076.78;5023014;28;20037;-73
2023/03/23 09:23:46;;;;;;;11.93;8.30;;;;;;;20.41;31.42;95068.78;5021926;28;20497;-73
2023/03/23 09:26:12;;;;;;;11.63;8.82;;;;;;;20.46;31.27;95082.03;5024752;28;20439;-74
2023/03/23 09:28:37;;;;;;;10.57;8.02;;;;;;;20.34;31.06;95072.78;5023939;28;20105;-74
2023/03/23 09:31:04;;;;;;;8.40;7.22;;;;;;;21.02;30.32;95062.75;5028464;28;20021;-74
2023/03/23 09:33:33;;;;;;;8.98;7.57;;;;;;;21.33;30.00;95067.44;5027533;28;20053;-73
2023/03/23 09:35:58;;;;;;;10.18;7.28;;;;;;;21.52;29.59;95053.00;5026426;28;20060;-74
2023/03/23 09:38:24;;;;;;;12.20;8.25;;;;;;;21.90;29.49;95057.84;5025608;28;20049;-73
2023/03/23 09:40:56;;;;;;;11.60;8.07;;;;;;;22.27;29.02;95056.84;5025409;28;20029;-74
2023/03/23 09:43:26;;;;;;;9.55;7.30;;;;;;;22.62;28.48;95052.72;5060653;28;20095;-73
2023/03/23 09:46:10;;;;;;;9.60;7.38;;;;;;;22.94;28.42;95055.91;5027005;28;20526;-73
2023/03/23 09:48:55;;;;;;;10.65;8.27;;;;;;;23.21;27.76;95062.69;5028526;28;20037;-74
2023/03/23 09:51:51;;;;;;;8.35;6.60;;;;;;;23.48;27.07;95058.22;5026178;28;20026;-73
2023/03/23 09:54:26;;;;;;;8.70;7.50;;;;;;;23.93;26.24;95055.13;5025377;28;20303;-72
2023/03/23 09:56:53;;;;;;;10.00;8.00;;;;;;;24.60;25.77;95055.31;5026978;28;20057;-73
2023/03/23 09:59:30;;;;;;;8.45;6.93;;;;;;;25.25;24.68;95061.97;5025537;28;20332;-74
2023/03/23 10:02:38;;;;;;;10.70;7.43;;;;;;;25.90;23.65;95055.19;5026228;28;20063;-73
2023/03/23 10:05:25;;;;;;;7.50;6.18;;;;;;;26.43;21.96;95051.78;5043200;28;20044;-74
2023/03/23 10:07:50;;;;;;;9.02;6.47;;;;;;;27.17;21.69;95051.91;5025328;28;20438;-73
2023/03/23 10:10:18;;;;;;;10.07;6.97;;;;;;;28.03;21.23;95051.03;5026206;28;20145;-73
2023/03/23 10:12:50;;;;;;;8.98;6.70;;;;;;;29.04;19.86;95056.22;5025804;28;20033;-73
2023/03/23 10:15:27;;;;;;;10.63;6.18;;;;;;;30.34;18.45;95053.84;5025736;28;20558;-74
2023/03/23 10:17:57;;;;;;;8.18;6.57;;;;;;;31.18;17.18;95045.25;5026879;28;20029;-73
2023/03/23 10:20:53;;;;;;;6.60;6.00;;;;;;;32.30;16.85;95049.47;5008178;28;20040;-73
2023/03/23 10:23:18;;;;;;;6.80;6.03;;;;;;;33.37;15.88;95054.19;5025974;28;20029;-72
2023/03/23 10:26:19;;;;;;;8.57;6.28;;;;;;;33.06;15.42;95044.50;5026983;28;20033;-74
2023/03/23 10:28:52;;;;;;;7.47;5.47;;;;;;;33.43;14.68;95046.19;5026261;28;20037;-74
2023/03/23 10:31:23;;;;;;;6.50;5.57;;;;;;;34.55;13.84;95054.38;5059097;28;20053;-74
2023/03/23 10:33:51;;;;;;;7.82;6.13;;;;;;;35.58;13.13;95052.94;5025204;28;20270;-74
2023/03/23 10:36:39;;;;;;;7.53;6.10;;;;;;;36.42;12.72;95045.41;5025743;28;20033;-72
2023/03/23 10:39:12;;;;;;;8.05;6.57;;;;;;;37.14;11.93;95047.47;5027534;28;20025;-72
2023/03/23 10:41:37;;;;;;;7.82;6.40;;;;;;;37.72;11.56;95050.63;5024285;28;20064;-74
2023/03/23 10:44:21;;;;;;;7.35;5.97;;;;;;;37.24;11.40;95048.16;5028137;28;20029;-73
2023/03/23 10:46:58;;;;;;;6.43;5.70;;;;;;;37.74;10.64;95044.28;5026217;28;20511;-73
2023/03/23 10:49:26;;;;;;;7.97;6.30;;;;;;;38.44;10.72;95041.63;5025477;28;20108;-72
2023/03/23 10:52:05;;;;;;;6.03;5.18;;;;;;;39.01;10.13;95042.25;5041987;28;20133;-73
2023/03/23 10:54:40;;;;;;;8.02;5.40;;;;;;;39.72;10.25;95042.84;5026015;28;20029;-74
2023/03/23 10:57:39;;;;;;;5.85;4.95;;;;;;;40.50;9.22;95032.81;5010215;28;20033;-73
2023/03/23 11:00:06;;;;;;;7.80;5.70;;;;;;;41.00;9.42;95034.00;5004294;28;20566;-74
2023/03/23 11:02:38;;;;;;;6.47;5.80;;;;;;;41.01;8.92;95029.75;5004227;28;20069;-74
2023/03/23 11:05:09;;;;;;;10.77;7.07;;;;;;;40.99;9.47;95035.41;4988644;28;20117;-74
2023/03/23 11:07:35;;;;;;;9.10;6.03;;;;;;;41.31;9.15;95034.19;4987325;28;20092;-74
2023/03/23 11:10:17;;;;;;;6.10;5.50;;;;;;;41.93;8.90;95026.50;4988972;28;20526;-74
2023/03/23 11:12:46;;;;;;;5.50;5.00;;;;;;;42.28;8.44;95028.91;4987646;28;20034;-74
2023/03/23 11:15:39;;;;;;;8.65;6.97;;;;;;;42.81;8.33;95027.72;5004906;28;20034;-74
2023/03/23 11:18:13;;;;;;;5.55;5.03;;;;;;;43.14;7.97;95027.03;4998852;28;20038;-74
2023/03/23 11:20:41;;;;;;;6.40;4.93;;;;;;;43.66;7.62;95019.13;5019676;28;20113;-74
2023/03/23 11:23:21;;;;;;;6.03;4.78;;;;;;;43.36;7.66;95013.53;4972379;28;20503;-74
2023/03/23 11:25:57;;;;;;;5.45;4.70;;;;;;;43.06;7.51;95003.53;5019896;28;20038;-75
2023/03/23 11:28:27;;;;;;;6.05;5.30;;;;;;;43.41;7.28;95002.88;4987730;28;20038;-73
2023/03/23 11:30:54;;;;;;;7.93;5.70;;;;;;;43.84;7.71;95007.56;4987869;28;20033;-73
2023/03/23 11:33:19;;;;;;;6.00;5.32;;;;;;;44.32;6.79;94994.28;5003180;28;20032;-74
2023/03/23 11:35:45;;;;;;;6.65;5.95;;;;;;;44.67;7.00;94990.56;5007074;28;20041;-75